KAC229 OEMA-OKKK
Flight info
| Callsign | KAC229 |
|---|---|
| Flight time | 1h 20m |
| Altitude | 31000 |
| Route | MIXUG Q46 NADIB H79 GAS B417 HFR A788 SOROR |
| Aircraft | A359/H-SDE2E3GHIJ3J4J5LM1ORWXY/LB1D1 |
Departure
| Time | 2026-04-24 11:18 |
|---|---|
| Airport | Prince Mohammad Bin Abdulaziz Airport (OEMA) |
Arrival
| Time | 2026-04-24 12:38 |
|---|---|
| Airport | Kuwait International Airport (OKKK) |
| Time | Latitude | Longitude | Altitude | Speed | Heading |
|---|---|---|---|---|---|
| 2026-04-24 10:55 | 24.55609 | 39.71257 | 2107 ft | 0 kts | 79° |
| 2026-04-24 11:09 | 24.55608 | 39.71248 | 2108 ft | 3 kts | 81° |
| 2026-04-24 11:09 | 24.55605 | 39.71226 | 2108 ft | 3 kts | 86° |
| 2026-04-24 11:09 | 24.55604 | 39.71204 | 2109 ft | 3 kts | 93° |
| 2026-04-24 11:10 | 24.55606 | 39.71182 | 2109 ft | 3 kts | 104° |
| 2026-04-24 11:10 | 24.55613 | 39.71162 | 2109 ft | 3 kts | 127° |
| 2026-04-24 11:10 | 24.55624 | 39.71150 | 2109 ft | 1 kts | 166° |
| 2026-04-24 11:10 | 24.55626 | 39.71150 | 2109 ft | 0 kts | 169° |
| 2026-04-24 11:13 | 24.55622 | 39.71151 | 2109 ft | 2 kts | 169° |
| 2026-04-24 11:13 | 24.55585 | 39.71159 | 2107 ft | 9 kts | 168° |
| 2026-04-24 11:14 | 24.55499 | 39.71178 | 2104 ft | 16 kts | 169° |
| 2026-04-24 11:14 | 24.55370 | 39.71204 | 2102 ft | 22 kts | 170° |
| 2026-04-24 11:14 | 24.55244 | 39.71162 | 2099 ft | 21 kts | 251° |
| 2026-04-24 11:14 | 24.55158 | 39.71051 | 2096 ft | 21 kts | 172° |
| 2026-04-24 11:15 | 24.55003 | 39.71085 | 2093 ft | 24 kts | 169° |
| 2026-04-24 11:15 | 24.54828 | 39.71121 | 2091 ft | 27 kts | 169° |
| 2026-04-24 11:15 | 24.54636 | 39.71162 | 2087 ft | 29 kts | 168° |
| 2026-04-24 11:15 | 24.54431 | 39.71206 | 2081 ft | 31 kts | 169° |
| 2026-04-24 11:16 | 24.54212 | 39.71254 | 2076 ft | 32 kts | 168° |
| 2026-04-24 11:16 | 24.53987 | 39.71303 | 2072 ft | 34 kts | 169° |
| 2026-04-24 11:16 | 24.53839 | 39.71286 | 2072 ft | 19 kts | 240° |
| 2026-04-24 11:16 | 24.53841 | 39.71143 | 2072 ft | 18 kts | 304° |
| 2026-04-24 11:17 | 24.53928 | 39.71119 | 2068 ft | 13 kts | 355° |
| 2026-04-24 11:17 | 24.54102 | 39.71084 | 2071 ft | 59 kts | 348° |
| 2026-04-24 11:17 | 24.54811 | 39.70927 | 2091 ft | 147 kts | 347° |
| 2026-04-24 11:17 | 24.56036 | 39.70687 | 2348 ft | 200 kts | 348° |
| 2026-04-24 11:18 | 24.57537 | 39.70364 | 2885 ft | 239 kts | 345° |
| 2026-04-24 11:18 | 24.59295 | 39.69940 | 3471 ft | 278 kts | 345° |
| 2026-04-24 11:18 | 24.61223 | 39.69482 | 4083 ft | 285 kts | 343° |
| 2026-04-24 11:18 | 24.63159 | 39.68996 | 4596 ft | 286 kts | 344° |
| 2026-04-24 11:19 | 24.65175 | 39.68965 | 4997 ft | 295 kts | 7° |
| 2026-04-24 11:19 | 24.67069 | 39.69766 | 5481 ft | 300 kts | 29° |
| 2026-04-24 11:19 | 24.68690 | 39.71225 | 6019 ft | 301 kts | 39° |
| 2026-04-24 11:19 | 24.70296 | 39.72692 | 6574 ft | 299 kts | 34° |
| 2026-04-24 11:20 | 24.71997 | 39.74004 | 7156 ft | 297 kts | 30° |
| 2026-04-24 11:20 | 24.73745 | 39.75206 | 7736 ft | 296 kts | 26° |
| 2026-04-24 11:20 | 24.75528 | 39.76376 | 8144 ft | 301 kts | 27° |
| 2026-04-24 11:20 | 24.77309 | 39.77553 | 8712 ft | 298 kts | 27° |
| 2026-04-24 11:21 | 24.79079 | 39.78739 | 9247 ft | 299 kts | 26° |
| 2026-04-24 11:21 | 24.80856 | 39.79952 | 9740 ft | 302 kts | 27° |
| 2026-04-24 11:21 | 24.82650 | 39.81184 | 10136 ft | 305 kts | 27° |
| 2026-04-24 11:21 | 24.84434 | 39.82476 | 10450 ft | 312 kts | 34° |
| 2026-04-24 11:22 | 24.86098 | 39.84048 | 10822 ft | 317 kts | 40° |
| 2026-04-24 11:22 | 24.87742 | 39.85687 | 11306 ft | 320 kts | 39° |
| 2026-04-24 11:22 | 24.89420 | 39.87322 | 11775 ft | 323 kts | 38° |
| 2026-04-24 11:22 | 24.91147 | 39.88927 | 12261 ft | 326 kts | 37° |
| 2026-04-24 11:23 | 24.92922 | 39.90491 | 12701 ft | 328 kts | 34° |
| 2026-04-24 11:23 | 24.94811 | 39.91904 | 13130 ft | 329 kts | 29° |
| 2026-04-24 11:23 | 24.96071 | 39.92873 | 13282 ft | 338 kts | 33° |
| 2026-04-24 11:23 | 24.97947 | 39.94511 | 13452 ft | 350 kts | 36° |
| 2026-04-24 11:24 | 24.99843 | 39.96251 | 13666 ft | 360 kts | 36° |
| 2026-04-24 11:24 | 25.01806 | 39.98030 | 13848 ft | 370 kts | 35° |
| 2026-04-24 11:24 | 25.03849 | 39.99819 | 14001 ft | 380 kts | 34° |
| 2026-04-24 11:24 | 25.05969 | 40.01618 | 14141 ft | 389 kts | 33° |
| 2026-04-24 11:25 | 25.08155 | 40.03430 | 14286 ft | 397 kts | 34° |
| 2026-04-24 11:25 | 25.10394 | 40.05271 | 14419 ft | 406 kts | 34° |
| 2026-04-24 11:25 | 25.13451 | 40.07779 | 14701 ft | 412 kts | 34° |
| 2026-04-24 11:25 | 25.14979 | 40.09036 | 14876 ft | 415 kts | 33° |
| 2026-04-24 11:26 | 25.17312 | 40.10955 | 15064 ft | 421 kts | 33° |
| 2026-04-24 11:26 | 25.19666 | 40.12895 | 15359 ft | 422 kts | 33° |
| 2026-04-24 11:26 | 25.22023 | 40.14840 | 15636 ft | 425 kts | 33° |
| 2026-04-24 11:26 | 25.24242 | 40.17015 | 15829 ft | 430 kts | 46° |
| 2026-04-24 11:27 | 25.25959 | 40.19721 | 16103 ft | 429 kts | 64° |
| 2026-04-24 11:27 | 25.27039 | 40.22786 | 16404 ft | 427 kts | 75° |
| 2026-04-24 11:27 | 25.27814 | 40.25946 | 16680 ft | 427 kts | 79° |
| 2026-04-24 11:27 | 25.28418 | 40.29104 | 17065 ft | 424 kts | 82° |
| 2026-04-24 11:28 | 25.28961 | 40.32313 | 17311 ft | 426 kts | 83° |
| 2026-04-24 11:28 | 25.29493 | 40.35559 | 17547 ft | 430 kts | 83° |
| 2026-04-24 11:28 | 25.30038 | 40.38815 | 17793 ft | 433 kts | 82° |
| 2026-04-24 11:28 | 25.30603 | 40.42093 | 18041 ft | 436 kts | 82° |
| 2026-04-24 11:29 | 25.31188 | 40.45387 | 18283 ft | 438 kts | 82° |
| 2026-04-24 11:29 | 25.31786 | 40.48698 | 18475 ft | 440 kts | 81° |
| 2026-04-24 11:29 | 25.32392 | 40.52020 | 18758 ft | 440 kts | 81° |
| 2026-04-24 11:29 | 25.33001 | 40.55348 | 19000 ft | 442 kts | 81° |
| 2026-04-24 11:30 | 25.33610 | 40.58678 | 19226 ft | 443 kts | 81° |
| 2026-04-24 11:30 | 25.34221 | 40.62030 | 19431 ft | 445 kts | 81° |
| 2026-04-24 11:30 | 25.34833 | 40.65391 | 19674 ft | 447 kts | 81° |
| 2026-04-24 11:30 | 25.35444 | 40.68762 | 19911 ft | 448 kts | 81° |
| 2026-04-24 11:31 | 25.36062 | 40.72145 | 20144 ft | 449 kts | 80° |
| 2026-04-24 11:31 | 25.36908 | 40.75481 | 20405 ft | 452 kts | 72° |
| 2026-04-24 11:31 | 25.37975 | 40.78773 | 20597 ft | 455 kts | 70° |
| 2026-04-24 11:31 | 25.39112 | 40.82002 | 20776 ft | 459 kts | 69° |
| 2026-04-24 11:32 | 25.40315 | 40.85279 | 20994 ft | 461 kts | 68° |
| 2026-04-24 11:32 | 25.41538 | 40.88556 | 21210 ft | 461 kts | 68° |
| 2026-04-24 11:32 | 25.42764 | 40.91835 | 21438 ft | 462 kts | 68° |
| 2026-04-24 11:32 | 25.43986 | 40.95118 | 21710 ft | 461 kts | 68° |
| 2026-04-24 11:33 | 25.45204 | 40.98409 | 21927 ft | 462 kts | 68° |
| 2026-04-24 11:33 | 25.46418 | 41.01704 | 22117 ft | 464 kts | 68° |
| 2026-04-24 11:33 | 25.47633 | 41.05018 | 22297 ft | 465 kts | 68° |
| 2026-04-24 11:33 | 25.48852 | 41.08349 | 22501 ft | 467 kts | 67° |
| 2026-04-24 11:34 | 25.50067 | 41.11677 | 22700 ft | 468 kts | 67° |
| 2026-04-24 11:34 | 25.51289 | 41.15022 | 22856 ft | 470 kts | 68° |
| 2026-04-24 11:34 | 25.52517 | 41.18386 | 22982 ft | 473 kts | 68° |
| 2026-04-24 11:34 | 25.53748 | 41.21762 | 23181 ft | 473 kts | 68° |
| 2026-04-24 11:35 | 25.54980 | 41.25145 | 23391 ft | 474 kts | 67° |
| 2026-04-24 11:35 | 25.56213 | 41.28532 | 23568 ft | 475 kts | 67° |
| 2026-04-24 11:35 | 25.57449 | 41.31932 | 23715 ft | 476 kts | 68° |
| 2026-04-24 11:35 | 25.58687 | 41.35339 | 23862 ft | 477 kts | 68° |
| 2026-04-24 11:36 | 25.59920 | 41.38740 | 24130 ft | 474 kts | 68° |
| 2026-04-24 11:36 | 25.61152 | 41.42135 | 24295 ft | 475 kts | 68° |
| 2026-04-24 11:36 | 25.62373 | 41.45501 | 24434 ft | 477 kts | 68° |
| 2026-04-24 11:36 | 25.63629 | 41.48964 | 24502 ft | 481 kts | 68° |
| 2026-04-24 11:37 | 25.64861 | 41.52368 | 24610 ft | 483 kts | 68° |
| 2026-04-24 11:37 | 25.66112 | 41.55828 | 24789 ft | 483 kts | 68° |
| 2026-04-24 11:37 | 25.67362 | 41.59291 | 24958 ft | 484 kts | 68° |
| 2026-04-24 11:37 | 25.68615 | 41.62763 | 25106 ft | 485 kts | 68° |
| 2026-04-24 11:38 | 25.69869 | 41.66240 | 25246 ft | 486 kts | 68° |
| 2026-04-24 11:38 | 25.73558 | 41.76482 | 25723 ft | 489 kts | 68° |
| 2026-04-24 11:39 | 25.76239 | 41.83940 | 26058 ft | 492 kts | 68° |
| 2026-04-24 11:39 | 25.77507 | 41.87473 | 26223 ft | 493 kts | 68° |
| 2026-04-24 11:39 | 25.78777 | 41.91017 | 26396 ft | 494 kts | 68° |
| 2026-04-24 11:40 | 25.80047 | 41.94564 | 26557 ft | 495 kts | 68° |
| 2026-04-24 11:40 | 25.81319 | 41.98117 | 26730 ft | 496 kts | 68° |
| 2026-04-24 11:40 | 25.82594 | 42.01688 | 26864 ft | 498 kts | 68° |
| 2026-04-24 11:40 | 25.83872 | 42.05267 | 27056 ft | 499 kts | 68° |
| 2026-04-24 11:41 | 25.85152 | 42.08853 | 27211 ft | 500 kts | 68° |
| 2026-04-24 11:41 | 25.86434 | 42.12443 | 27368 ft | 502 kts | 69° |
| 2026-04-24 11:41 | 25.87728 | 42.16072 | 27413 ft | 507 kts | 69° |
| 2026-04-24 11:41 | 25.89024 | 42.19717 | 27599 ft | 508 kts | 69° |
| 2026-04-24 11:42 | 25.90318 | 42.23358 | 27896 ft | 505 kts | 69° |
| 2026-04-24 11:42 | 25.91608 | 42.26988 | 28144 ft | 506 kts | 69° |
| 2026-04-24 11:42 | 25.92883 | 42.30580 | 28271 ft | 508 kts | 69° |
| 2026-04-24 11:42 | 25.94196 | 42.34280 | 28439 ft | 509 kts | 69° |
| 2026-04-24 11:43 | 25.95478 | 42.37899 | 28611 ft | 511 kts | 69° |
| 2026-04-24 11:43 | 25.96778 | 42.41573 | 28761 ft | 512 kts | 69° |
| 2026-04-24 11:43 | 25.98083 | 42.45265 | 28898 ft | 514 kts | 69° |
| 2026-04-24 11:43 | 25.99390 | 42.48965 | 29060 ft | 515 kts | 69° |
| 2026-04-24 11:44 | 26.00702 | 42.52680 | 29243 ft | 517 kts | 69° |
| 2026-04-24 11:44 | 26.02019 | 42.56415 | 29401 ft | 518 kts | 69° |
| 2026-04-24 11:44 | 26.03335 | 42.60148 | 29573 ft | 519 kts | 69° |
| 2026-04-24 11:44 | 26.04653 | 42.63894 | 29780 ft | 519 kts | 68° |
| 2026-04-24 11:45 | 26.05966 | 42.67629 | 30032 ft | 519 kts | 68° |
| 2026-04-24 11:45 | 26.07282 | 42.71372 | 30161 ft | 521 kts | 68° |
| 2026-04-24 11:45 | 26.08604 | 42.75134 | 30327 ft | 522 kts | 69° |
| 2026-04-24 11:45 | 26.09922 | 42.78893 | 30599 ft | 520 kts | 69° |
| 2026-04-24 11:46 | 26.11238 | 42.82650 | 30792 ft | 521 kts | 69° |
| 2026-04-24 11:46 | 26.12554 | 42.86411 | 30919 ft | 520 kts | 69° |
| 2026-04-24 11:46 | 26.13841 | 42.90090 | 30944 ft | 503 kts | 69° |
| 2026-04-24 11:46 | 26.15088 | 42.93662 | 30946 ft | 488 kts | 69° |
| 2026-04-24 11:47 | 26.16705 | 42.98310 | 30952 ft | 485 kts | 69° |
| 2026-04-24 11:47 | 26.19323 | 43.07524 | 30961 ft | 482 kts | 80° |
| 2026-04-24 11:48 | 26.20538 | 43.14844 | 30947 ft | 479 kts | 82° |
| 2026-04-24 11:48 | 26.21640 | 43.22161 | 30947 ft | 478 kts | 82° |
| 2026-04-24 11:49 | 26.22725 | 43.29416 | 30941 ft | 478 kts | 82° |
| 2026-04-24 11:49 | 26.23828 | 43.36716 | 30944 ft | 478 kts | 82° |
| 2026-04-24 11:50 | 26.24933 | 43.44005 | 30936 ft | 477 kts | 82° |
| 2026-04-24 11:50 | 26.26037 | 43.51296 | 30962 ft | 478 kts | 82° |
| 2026-04-24 11:51 | 26.27138 | 43.58604 | 30955 ft | 478 kts | 82° |
| 2026-04-24 11:51 | 26.28235 | 43.65918 | 30961 ft | 478 kts | 82° |
| 2026-04-24 11:52 | 26.29384 | 43.73209 | 30973 ft | 478 kts | 77° |
| 2026-04-24 11:52 | 26.30449 | 43.76722 | 30969 ft | 479 kts | 65° |
| 2026-04-24 11:52 | 26.32128 | 43.79929 | 30969 ft | 479 kts | 51° |
| 2026-04-24 11:53 | 26.36595 | 43.85464 | 30966 ft | 483 kts | 43° |
| 2026-04-24 11:53 | 26.41372 | 43.90765 | 30958 ft | 485 kts | 41° |
| 2026-04-24 11:54 | 26.46137 | 43.96031 | 30953 ft | 486 kts | 42° |
| 2026-04-24 11:54 | 26.50908 | 44.01382 | 30958 ft | 486 kts | 42° |
| 2026-04-24 11:55 | 26.55666 | 44.06762 | 30949 ft | 487 kts | 42° |
| 2026-04-24 11:55 | 26.60416 | 44.12148 | 30943 ft | 486 kts | 43° |
| 2026-04-24 11:56 | 26.65167 | 44.17539 | 30947 ft | 486 kts | 43° |
| 2026-04-24 11:56 | 26.69926 | 44.22945 | 30939 ft | 490 kts | 42° |
| 2026-04-24 11:57 | 26.74699 | 44.28369 | 30949 ft | 487 kts | 42° |
| 2026-04-24 11:57 | 26.79446 | 44.33773 | 30952 ft | 486 kts | 42° |
| 2026-04-24 11:58 | 26.84197 | 44.39187 | 30953 ft | 490 kts | 42° |
| 2026-04-24 11:58 | 26.88980 | 44.44646 | 30951 ft | 490 kts | 42° |
| 2026-04-24 11:59 | 26.93733 | 44.50078 | 30952 ft | 487 kts | 42° |
| 2026-04-24 11:59 | 26.98479 | 44.55508 | 30956 ft | 489 kts | 42° |
| 2026-04-24 12:00 | 27.03258 | 44.60981 | 30954 ft | 492 kts | 42° |
| 2026-04-24 12:00 | 27.08023 | 44.66452 | 30955 ft | 488 kts | 42° |
| 2026-04-24 12:01 | 27.12761 | 44.71900 | 30953 ft | 489 kts | 41° |
| 2026-04-24 12:01 | 27.17533 | 44.77393 | 30949 ft | 492 kts | 41° |
| 2026-04-24 12:02 | 27.22316 | 44.82906 | 30949 ft | 492 kts | 41° |
| 2026-04-24 12:02 | 27.27068 | 44.88390 | 30946 ft | 492 kts | 41° |
| 2026-04-24 12:03 | 27.31842 | 44.93909 | 30949 ft | 492 kts | 41° |
| 2026-04-24 12:03 | 27.36620 | 44.99436 | 30951 ft | 492 kts | 41° |
| 2026-04-24 12:04 | 27.41391 | 45.04965 | 30952 ft | 493 kts | 41° |
| 2026-04-24 12:04 | 27.46162 | 45.10500 | 30948 ft | 492 kts | 41° |
| 2026-04-24 12:05 | 27.50921 | 45.16028 | 30946 ft | 491 kts | 41° |
| 2026-04-24 12:05 | 27.55678 | 45.21562 | 30946 ft | 491 kts | 41° |
| 2026-04-24 12:06 | 27.60551 | 45.26951 | 30946 ft | 489 kts | 37° |
| 2026-04-24 12:06 | 27.65619 | 45.32073 | 30946 ft | 489 kts | 37° |
| 2026-04-24 12:07 | 27.70691 | 45.37208 | 30949 ft | 490 kts | 37° |
| 2026-04-24 12:07 | 27.75716 | 45.42381 | 30949 ft | 489 kts | 37° |
| 2026-04-24 12:08 | 27.78192 | 45.44949 | 30842 ft | 493 kts | 38° |
| 2026-04-24 12:08 | 27.80755 | 45.47604 | 30745 ft | 506 kts | 38° |
| 2026-04-24 12:08 | 27.83383 | 45.50323 | 30704 ft | 519 kts | 38° |
| 2026-04-24 12:08 | 27.86062 | 45.53098 | 30540 ft | 523 kts | 38° |
| 2026-04-24 12:09 | 27.88737 | 45.55884 | 30338 ft | 522 kts | 38° |
| 2026-04-24 12:09 | 27.91348 | 45.58739 | 30099 ft | 522 kts | 40° |
| 2026-04-24 12:09 | 27.93862 | 45.61683 | 29835 ft | 520 kts | 42° |
| 2026-04-24 12:09 | 27.96337 | 45.64664 | 29558 ft | 518 kts | 42° |
| 2026-04-24 12:10 | 27.98792 | 45.67634 | 29295 ft | 516 kts | 42° |
| 2026-04-24 12:10 | 28.01248 | 45.70588 | 29025 ft | 514 kts | 42° |
| 2026-04-24 12:10 | 28.03707 | 45.73520 | 28749 ft | 513 kts | 42° |
| 2026-04-24 12:11 | 28.08624 | 45.79332 | 28229 ft | 510 kts | 41° |
| 2026-04-24 12:11 | 28.11086 | 45.82230 | 27981 ft | 509 kts | 41° |
| 2026-04-24 12:11 | 28.13543 | 45.85122 | 27724 ft | 508 kts | 41° |
| 2026-04-24 12:11 | 28.15990 | 45.88005 | 27482 ft | 507 kts | 41° |
| 2026-04-24 12:12 | 28.18397 | 45.90843 | 27226 ft | 505 kts | 41° |
| 2026-04-24 12:12 | 28.20829 | 45.93715 | 26981 ft | 504 kts | 41° |
| 2026-04-24 12:12 | 28.23251 | 45.96578 | 26746 ft | 502 kts | 41° |
| 2026-04-24 12:12 | 28.25669 | 45.99437 | 26500 ft | 500 kts | 41° |
| 2026-04-24 12:13 | 28.28071 | 46.02280 | 26259 ft | 498 kts | 41° |
| 2026-04-24 12:13 | 28.30466 | 46.05117 | 26016 ft | 497 kts | 42° |
| 2026-04-24 12:13 | 28.32823 | 46.07980 | 25773 ft | 497 kts | 46° |
| 2026-04-24 12:13 | 28.34809 | 46.11188 | 25532 ft | 498 kts | 59° |
| 2026-04-24 12:14 | 28.35795 | 46.13541 | 25365 ft | 497 kts | 68° |
| 2026-04-24 12:14 | 28.36748 | 46.17303 | 25153 ft | 493 kts | 77° |
| 2026-04-24 12:14 | 28.37433 | 46.21101 | 24920 ft | 489 kts | 80° |
| 2026-04-24 12:14 | 28.37999 | 46.24888 | 24699 ft | 485 kts | 82° |
| 2026-04-24 12:15 | 28.38513 | 46.28672 | 24485 ft | 483 kts | 82° |
| 2026-04-24 12:15 | 28.39173 | 46.33652 | 24187 ft | 480 kts | 82° |
| 2026-04-24 12:15 | 28.39513 | 46.36182 | 24029 ft | 479 kts | 82° |
| 2026-04-24 12:15 | 28.40023 | 46.39913 | 23812 ft | 477 kts | 82° |
| 2026-04-24 12:16 | 28.40542 | 46.43640 | 23590 ft | 480 kts | 82° |
| 2026-04-24 12:16 | 28.41072 | 46.47395 | 23340 ft | 482 kts | 82° |
| 2026-04-24 12:16 | 28.41604 | 46.51144 | 23077 ft | 480 kts | 81° |
| 2026-04-24 12:16 | 28.42126 | 46.54828 | 22818 ft | 477 kts | 81° |
| 2026-04-24 12:17 | 28.42651 | 46.58536 | 22549 ft | 473 kts | 81° |
| 2026-04-24 12:17 | 28.43170 | 46.62210 | 22287 ft | 470 kts | 81° |
| 2026-04-24 12:17 | 28.43684 | 46.65857 | 22034 ft | 465 kts | 81° |
| 2026-04-24 12:17 | 28.44189 | 46.69458 | 21772 ft | 461 kts | 81° |
| 2026-04-24 12:18 | 28.44691 | 46.73047 | 21513 ft | 459 kts | 81° |
| 2026-04-24 12:18 | 28.45190 | 46.76625 | 21273 ft | 456 kts | 81° |
| 2026-04-24 12:18 | 28.45684 | 46.80172 | 21037 ft | 453 kts | 81° |
| 2026-04-24 12:18 | 28.46174 | 46.83696 | 20785 ft | 450 kts | 81° |
| 2026-04-24 12:19 | 28.46661 | 46.87196 | 20538 ft | 447 kts | 81° |
| 2026-04-24 12:19 | 28.47128 | 46.90679 | 20297 ft | 444 kts | 81° |
| 2026-04-24 12:19 | 28.47576 | 46.94136 | 20059 ft | 440 kts | 81° |
| 2026-04-24 12:19 | 28.48032 | 46.97577 | 19819 ft | 441 kts | 81° |
| 2026-04-24 12:20 | 28.48493 | 47.01006 | 19575 ft | 435 kts | 80° |
| 2026-04-24 12:20 | 28.48954 | 47.04390 | 19365 ft | 431 kts | 80° |
| 2026-04-24 12:20 | 28.49412 | 47.07742 | 19132 ft | 428 kts | 80° |
| 2026-04-24 12:20 | 28.49867 | 47.11071 | 18897 ft | 425 kts | 79° |
| 2026-04-24 12:21 | 28.50319 | 47.14376 | 18678 ft | 422 kts | 79° |
| 2026-04-24 12:21 | 28.50769 | 47.17666 | 18445 ft | 419 kts | 79° |
| 2026-04-24 12:21 | 28.51213 | 47.20925 | 18215 ft | 415 kts | 79° |
| 2026-04-24 12:21 | 28.51654 | 47.24159 | 17952 ft | 413 kts | 79° |
| 2026-04-24 12:22 | 28.52087 | 47.27336 | 17691 ft | 411 kts | 79° |
| 2026-04-24 12:22 | 28.52523 | 47.30544 | 17431 ft | 409 kts | 79° |
| 2026-04-24 12:22 | 28.52956 | 47.33739 | 17168 ft | 408 kts | 79° |
| 2026-04-24 12:22 | 28.53387 | 47.36923 | 16805 ft | 406 kts | 79° |
| 2026-04-24 12:23 | 28.53815 | 47.40093 | 16380 ft | 404 kts | 79° |
| 2026-04-24 12:23 | 28.54239 | 47.43245 | 16129 ft | 402 kts | 79° |
| 2026-04-24 12:23 | 28.54662 | 47.46387 | 15883 ft | 401 kts | 79° |
| 2026-04-24 12:23 | 28.55082 | 47.49515 | 15667 ft | 398 kts | 79° |
| 2026-04-24 12:24 | 28.55491 | 47.52572 | 15526 ft | 383 kts | 79° |
| 2026-04-24 12:24 | 28.55885 | 47.55510 | 15395 ft | 368 kts | 79° |
| 2026-04-24 12:24 | 28.56261 | 47.58339 | 15267 ft | 355 kts | 79° |
| 2026-04-24 12:24 | 28.56623 | 47.61073 | 15074 ft | 346 kts | 79° |
| 2026-04-24 12:25 | 28.56981 | 47.63776 | 14849 ft | 345 kts | 79° |
| 2026-04-24 12:25 | 28.57251 | 47.66414 | 14665 ft | 334 kts | 85° |
| 2026-04-24 12:25 | 28.57343 | 47.69024 | 14418 ft | 327 kts | 87° |
| 2026-04-24 12:25 | 28.57398 | 47.71592 | 14107 ft | 323 kts | 88° |
| 2026-04-24 12:26 | 28.57450 | 47.74135 | 13779 ft | 320 kts | 88° |
| 2026-04-24 12:26 | 28.57504 | 47.76659 | 13440 ft | 319 kts | 88° |
| 2026-04-24 12:26 | 28.57561 | 47.79177 | 13138 ft | 316 kts | 88° |
| 2026-04-24 12:26 | 28.57877 | 47.81622 | 12834 ft | 312 kts | 71° |
| 2026-04-24 12:27 | 28.58846 | 47.83808 | 11922 ft | 312 kts | 46° |
| 2026-04-24 12:27 | 28.60519 | 47.85392 | 11081 ft | 318 kts | 27° |
| 2026-04-24 12:27 | 28.62397 | 47.86740 | 10569 ft | 319 kts | 26° |
| 2026-04-24 12:27 | 28.64237 | 47.88044 | 10614 ft | 294 kts | 27° |
| 2026-04-24 12:28 | 28.65905 | 47.89244 | 10309 ft | 278 kts | 27° |
| 2026-04-24 12:28 | 28.67561 | 47.90425 | 9396 ft | 286 kts | 27° |
| 2026-04-24 12:28 | 28.69300 | 47.91654 | 8885 ft | 300 kts | 27° |
| 2026-04-24 12:28 | 28.71085 | 47.92920 | 8677 ft | 303 kts | 27° |
| 2026-04-24 12:29 | 28.72870 | 47.94192 | 8363 ft | 301 kts | 28° |
| 2026-04-24 12:29 | 28.74632 | 47.95451 | 7932 ft | 298 kts | 28° |
| 2026-04-24 12:29 | 28.76382 | 47.96702 | 7563 ft | 296 kts | 28° |
| 2026-04-24 12:29 | 28.78091 | 47.97925 | 7251 ft | 293 kts | 28° |
| 2026-04-24 12:30 | 28.79807 | 47.99155 | 6925 ft | 291 kts | 28° |
| 2026-04-24 12:30 | 28.81511 | 48.00376 | 6604 ft | 288 kts | 29° |
| 2026-04-24 12:30 | 28.83202 | 48.01587 | 6010 ft | 286 kts | 28° |
| 2026-04-24 12:30 | 28.84881 | 48.02787 | 5248 ft | 281 kts | 29° |
| 2026-04-24 12:31 | 28.86514 | 48.03960 | 4522 ft | 275 kts | 28° |
| 2026-04-24 12:31 | 28.88190 | 48.04951 | 3879 ft | 268 kts | 15° |
| 2026-04-24 12:31 | 28.90019 | 48.05336 | 3778 ft | 267 kts | 359° |
| 2026-04-24 12:31 | 28.91873 | 48.05332 | 3649 ft | 266 kts | 355° |
| 2026-04-24 12:32 | 28.93726 | 48.05235 | 3522 ft | 266 kts | 354° |
| 2026-04-24 12:32 | 28.95568 | 48.05120 | 3370 ft | 265 kts | 353° |
| 2026-04-24 12:32 | 28.97401 | 48.04996 | 2783 ft | 261 kts | 353° |
| 2026-04-24 12:32 | 28.99165 | 48.04880 | 2397 ft | 245 kts | 353° |
| 2026-04-24 12:33 | 29.00792 | 48.04776 | 2257 ft | 222 kts | 354° |
| 2026-04-24 12:33 | 29.02269 | 48.04685 | 2257 ft | 211 kts | 353° |
| 2026-04-24 12:33 | 29.03740 | 48.04584 | 2242 ft | 209 kts | 353° |
| 2026-04-24 12:33 | 29.05191 | 48.04479 | 2259 ft | 208 kts | 353° |
| 2026-04-24 12:34 | 29.06639 | 48.04377 | 2253 ft | 209 kts | 353° |
| 2026-04-24 12:34 | 29.08075 | 48.04188 | 2249 ft | 207 kts | 347° |
| 2026-04-24 12:34 | 29.09469 | 48.03795 | 2255 ft | 203 kts | 339° |
| 2026-04-24 12:34 | 29.10725 | 48.03215 | 2245 ft | 192 kts | 332° |
| 2026-04-24 12:35 | 29.11883 | 48.02617 | 2190 ft | 174 kts | 334° |
| 2026-04-24 12:35 | 29.12967 | 48.02055 | 1963 ft | 170 kts | 331° |
| 2026-04-24 12:35 | 29.14035 | 48.01472 | 1739 ft | 170 kts | 332° |
| 2026-04-24 12:35 | 29.15109 | 48.00902 | 1499 ft | 171 kts | 333° |
| 2026-04-24 12:36 | 29.16162 | 48.00347 | 1291 ft | 162 kts | 333° |
| 2026-04-24 12:36 | 29.17155 | 47.99818 | 1069 ft | 151 kts | 333° |
| 2026-04-24 12:36 | 29.18067 | 47.99333 | 892 ft | 140 kts | 333° |
| 2026-04-24 12:36 | 29.18939 | 47.98867 | 735 ft | 138 kts | 334° |
| 2026-04-24 12:37 | 29.19809 | 47.98399 | 577 ft | 137 kts | 334° |
| 2026-04-24 12:37 | 29.20686 | 47.97933 | 384 ft | 141 kts | 334° |
| 2026-04-24 12:37 | 29.21565 | 47.97467 | 201 ft | 137 kts | 334° |
| 2026-04-24 12:37 | 29.22387 | 47.97029 | 170 ft | 119 kts | 335° |
| 2026-04-24 12:38 | 29.22907 | 47.96755 | 169 ft | 44 kts | 336° |
| 2026-04-24 12:38 | 29.23072 | 47.96696 | 169 ft | 19 kts | 23° |
| 2026-04-24 12:38 | 29.23114 | 47.96762 | 170 ft | 0 kts | 66° |
| 2026-04-24 12:39 | 29.23146 | 47.96835 | 171 ft | 13 kts | 52° |
| 2026-04-24 12:39 | 29.23248 | 47.96828 | 170 ft | 20 kts | 336° |
| 2026-04-24 12:39 | 29.23395 | 47.96751 | 170 ft | 26 kts | 335° |
| 2026-04-24 12:40 | 29.23563 | 47.96663 | 169 ft | 27 kts | 335° |
| 2026-04-24 12:40 | 29.23732 | 47.96574 | 171 ft | 27 kts | 335° |
| 2026-04-24 12:40 | 29.23903 | 47.96482 | 170 ft | 27 kts | 334° |
| 2026-04-24 12:40 | 29.24077 | 47.96388 | 170 ft | 28 kts | 335° |
| 2026-04-24 12:41 | 29.24253 | 47.96294 | 170 ft | 28 kts | 335° |
| 2026-04-24 12:41 | 29.24430 | 47.96200 | 171 ft | 28 kts | 335° |
| 2026-04-24 12:41 | 29.24607 | 47.96105 | 171 ft | 28 kts | 335° |
| 2026-04-24 12:41 | 29.24784 | 47.96010 | 171 ft | 28 kts | 335° |
| 2026-04-24 12:42 | 29.24932 | 47.95931 | 171 ft | 28 kts | 335° |
| 2026-04-24 12:42 | 29.24993 | 47.95905 | 171 ft | 1 kts | 356° |
| 2026-04-24 12:42 | 29.25021 | 47.95920 | 172 ft | 9 kts | 41° |
| 2026-04-24 12:42 | 29.25089 | 47.95939 | 173 ft | 11 kts | 341° |
| 2026-04-24 12:43 | 29.25143 | 47.95919 | 173 ft | 7 kts | 352° |
| 2026-04-24 12:43 | 29.25176 | 47.95939 | 173 ft | 0 kts | 55° |